sensor_id;sensor_type;location;lat;lon;timestamp;temperature;humidity
62583;DHT22;48641;51.676;5.808;2023-12-20T00:01:01;14.70;62.70
62583;DHT22;48641;51.676;5.808;2023-12-20T00:03:27;14.70;62.80
62583;DHT22;48641;51.676;5.808;2023-12-20T00:05:52;14.70;62.70
62583;DHT22;48641;51.676;5.808;2023-12-20T00:08:18;14.70;62.80
62583;DHT22;48641;51.676;5.808;2023-12-20T00:10:44;14.70;62.70
62583;DHT22;48641;51.676;5.808;2023-12-20T00:13:10;14.70;62.80
62583;DHT22;48641;51.676;5.808;2023-12-20T00:15:35;14.70;62.70
62583;DHT22;48641;51.676;5.808;2023-12-20T00:18:01;14.70;62.70
62583;DHT22;48641;51.676;5.808;2023-12-20T00:20:28;14.70;62.70
62583;DHT22;48641;51.676;5.808;2023-12-20T00:22:57;14.70;62.60
62583;DHT22;48641;51.676;5.808;2023-12-20T00:25:23;14.70;62.60
62583;DHT22;48641;51.676;5.808;2023-12-20T00:27:49;14.70;62.60
62583;DHT22;48641;51.676;5.808;2023-12-20T00:30:15;14.70;62.60
62583;DHT22;48641;51.676;5.808;2023-12-20T00:32:40;14.70;62.60
62583;DHT22;48641;51.676;5.808;2023-12-20T00:35:14;14.70;62.60
62583;DHT22;48641;51.676;5.808;2023-12-20T00:37:40;14.60;62.50
62583;DHT22;48641;51.676;5.808;2023-12-20T00:40:06;14.70;62.60
62583;DHT22;48641;51.676;5.808;2023-12-20T00:42:32;14.70;62.60
62583;DHT22;48641;51.676;5.808;2023-12-20T00:44:59;14.70;62.60
62583;DHT22;48641;51.676;5.808;2023-12-20T00:47:24;14.60;62.50
62583;DHT22;48641;51.676;5.808;2023-12-20T00:49:50;14.70;62.60
62583;DHT22;48641;51.676;5.808;2023-12-20T00:52:16;14.70;62.60
62583;DHT22;48641;51.676;5.808;2023-12-20T00:54:43;14.70;62.60
62583;DHT22;48641;51.676;5.808;2023-12-20T00:57:08;14.60;63.60
62583;DHT22;48641;51.676;5.808;2023-12-20T00:59:34;14.70;62.60
62583;DHT22;48641;51.676;5.808;2023-12-20T01:02:00;14.60;62.60
62583;DHT22;48641;51.676;5.808;2023-12-20T01:04:25;14.60;62.50
62583;DHT22;48641;51.676;5.808;2023-12-20T01:06:52;14.60;62.50
62583;DHT22;48641;51.676;5.808;2023-12-20T01:09:18;14.60;62.50
62583;DHT22;48641;51.676;5.808;2023-12-20T01:11:44;14.60;62.50
62583;DHT22;48641;51.676;5.808;2023-12-20T01:14:09;14.60;62.50
62583;DHT22;48641;51.676;5.808;2023-12-20T01:16:35;14.60;62.50
62583;DHT22;48641;51.676;5.808;2023-12-20T01:19:01;14.60;62.50
62583;DHT22;48641;51.676;5.808;2023-12-20T01:21:26;14.60;62.50
62583;DHT22;48641;51.676;5.808;2023-12-20T01:23:52;14.60;62.50
62583;DHT22;48641;51.676;5.808;2023-12-20T01:26:17;14.60;62.40
62583;DHT22;48641;51.676;5.808;2023-12-20T01:28:43;14.60;62.40
62583;DHT22;48641;51.676;5.808;2023-12-20T01:31:08;14.60;62.40
62583;DHT22;48641;51.676;5.808;2023-12-20T01:33:34;14.60;62.40
62583;DHT22;48641;51.676;5.808;2023-12-20T01:36:00;14.60;62.40
62583;DHT22;48641;51.676;5.808;2023-12-20T01:38:25;14.60;62.40
62583;DHT22;48641;51.676;5.808;2023-12-20T01:40:53;14.60;62.40
62583;DHT22;48641;51.676;5.808;2023-12-20T01:43:19;14.60;62.40
62583;DHT22;48641;51.676;5.808;2023-12-20T01:45:45;14.60;62.40
62583;DHT22;48641;51.676;5.808;2023-12-20T01:48:10;14.60;62.40
62583;DHT22;48641;51.676;5.808;2023-12-20T01:50:36;14.60;62.40
62583;DHT22;48641;51.676;5.808;2023-12-20T01:53:04;14.60;62.30
62583;DHT22;48641;51.676;5.808;2023-12-20T01:55:32;14.60;62.30
62583;DHT22;48641;51.676;5.808;2023-12-20T01:57:59;14.60;62.30
62583;DHT22;48641;51.676;5.808;2023-12-20T02:00:26;14.60;62.30
62583;DHT22;48641;51.676;5.808;2023-12-20T02:02:54;14.60;62.30
62583;DHT22;48641;51.676;5.808;2023-12-20T02:05:22;14.60;62.30
62583;DHT22;48641;51.676;5.808;2023-12-20T02:07:49;14.60;62.30
62583;DHT22;48641;51.676;5.808;2023-12-20T02:10:15;14.60;62.30
62583;DHT22;48641;51.676;5.808;2023-12-20T02:12:41;14.60;62.20
62583;DHT22;48641;51.676;5.808;2023-12-20T02:15:07;14.60;62.20
62583;DHT22;48641;51.676;5.808;2023-12-20T02:17:33;14.60;62.20
62583;DHT22;48641;51.676;5.808;2023-12-20T02:19:58;14.60;62.10
62583;DHT22;48641;51.676;5.808;2023-12-20T02:22:24;14.60;62.20
62583;DHT22;48641;51.676;5.808;2023-12-20T02:24:50;14.60;62.30
62583;DHT22;48641;51.676;5.808;2023-12-20T02:27:15;14.60;62.30
62583;DHT22;48641;51.676;5.808;2023-12-20T02:29:43;14.60;62.30
62583;DHT22;48641;51.676;5.808;2023-12-20T02:32:08;14.50;62.30
62583;DHT22;48641;51.676;5.808;2023-12-20T02:34:34;14.60;62.30
62583;DHT22;48641;51.676;5.808;2023-12-20T02:37:00;14.50;62.20
62583;DHT22;48641;51.676;5.808;2023-12-20T02:39:26;14.50;62.20
62583;DHT22;48641;51.676;5.808;2023-12-20T02:41:52;14.50;62.10
62583;DHT22;48641;51.676;5.808;2023-12-20T02:44:19;14.50;62.20
62583;DHT22;48641;51.676;5.808;2023-12-20T02:46:45;14.50;62.20
62583;DHT22;48641;51.676;5.808;2023-12-20T02:49:11;14.60;62.20
62583;DHT22;48641;51.676;5.808;2023-12-20T02:51:36;14.50;62.10
62583;DHT22;48641;51.676;5.808;2023-12-20T02:54:04;14.50;62.10
62583;DHT22;48641;51.676;5.808;2023-12-20T02:56:29;14.60;62.20
62583;DHT22;48641;51.676;5.808;2023-12-20T02:58:55;14.60;62.10
62583;DHT22;48641;51.676;5.808;2023-12-20T03:01:21;14.60;62.10
62583;DHT22;48641;51.676;5.808;2023-12-20T03:03:46;14.60;62.10
62583;DHT22;48641;51.676;5.808;2023-12-20T03:06:17;14.60;62.10
62583;DHT22;48641;51.676;5.808;2023-12-20T03:08:43;14.50;62.10
62583;DHT22;48641;51.676;5.808;2023-12-20T03:11:08;14.50;62.10
62583;DHT22;48641;51.676;5.808;2023-12-20T03:13:34;14.50;62.10
62583;DHT22;48641;51.676;5.808;2023-12-20T03:15:59;14.50;62.10
62583;DHT22;48641;51.676;5.808;2023-12-20T03:18:25;14.50;62.10
62583;DHT22;48641;51.676;5.808;2023-12-20T03:20:53;14.50;62.10
62583;DHT22;48641;51.676;5.808;2023-12-20T03:23:18;14.50;62.00
62583;DHT22;48641;51.676;5.808;2023-12-20T03:25:44;14.50;62.10
62583;DHT22;48641;51.676;5.808;2023-12-20T03:28:09;14.50;62.00
62583;DHT22;48641;51.676;5.808;2023-12-20T03:30:35;14.50;62.00
62583;DHT22;48641;51.676;5.808;2023-12-20T03:33:01;14.50;62.00
62583;DHT22;48641;51.676;5.808;2023-12-20T03:35:26;14.50;62.10
62583;DHT22;48641;51.676;5.808;2023-12-20T03:37:52;14.50;62.00
62583;DHT22;48641;51.676;5.808;2023-12-20T03:40:17;14.50;62.30
62583;DHT22;48641;51.676;5.808;2023-12-20T03:42:43;14.50;62.00
62583;DHT22;48641;51.676;5.808;2023-12-20T03:45:09;14.50;62.00
62583;DHT22;48641;51.676;5.808;2023-12-20T03:47:34;14.50;62.00
62583;DHT22;48641;51.676;5.808;2023-12-20T03:50:00;14.50;62.00
62583;DHT22;48641;51.676;5.808;2023-12-20T03:52:28;14.50;62.00
62583;DHT22;48641;51.676;5.808;2023-12-20T03:54:54;14.50;62.00
62583;DHT22;48641;51.676;5.808;2023-12-20T03:57:19;14.40;61.90
62583;DHT22;48641;51.676;5.808;2023-12-20T03:59:45;14.50;62.00
62583;DHT22;48641;51.676;5.808;2023-12-20T04:02:12;14.50;62.10
62583;DHT22;48641;51.676;5.808;2023-12-20T04:04:37;14.50;62.00
62583;DHT22;48641;51.676;5.808;2023-12-20T04:07:03;14.50;62.00
62583;DHT22;48641;51.676;5.808;2023-12-20T04:09:29;14.50;62.00
62583;DHT22;48641;51.676;5.808;2023-12-20T04:11:54;14.50;62.00
62583;DHT22;48641;51.676;5.808;2023-12-20T04:14:20;14.40;61.90
62583;DHT22;48641;51.676;5.808;2023-12-20T04:16:45;14.50;62.00
62583;DHT22;48641;51.676;5.808;2023-12-20T04:19:11;14.40;61.90
62583;DHT22;48641;51.676;5.808;2023-12-20T04:21:36;14.50;62.00
62583;DHT22;48641;51.676;5.808;2023-12-20T04:24:02;14.50;62.10
62583;DHT22;48641;51.676;5.808;2023-12-20T04:26:28;14.50;62.00
62583;DHT22;48641;51.676;5.808;2023-12-20T04:28:54;14.50;62.00
62583;DHT22;48641;51.676;5.808;2023-12-20T04:31:20;14.50;62.00
62583;DHT22;48641;51.676;5.808;2023-12-20T04:33:45;14.50;61.90
62583;DHT22;48641;51.676;5.808;2023-12-20T04:36:11;14.50;61.90
62583;DHT22;48641;51.676;5.808;2023-12-20T04:38:37;14.50;61.90
62583;DHT22;48641;51.676;5.808;2023-12-20T04:41:02;14.40;61.80
62583;DHT22;48641;51.676;5.808;2023-12-20T04:43:28;14.50;61.90
62583;DHT22;48641;51.676;5.808;2023-12-20T04:45:55;14.50;61.90
62583;DHT22;48641;51.676;5.808;2023-12-20T04:48:21;14.40;61.90
62583;DHT22;48641;51.676;5.808;2023-12-20T04:50:47;14.40;61.80
62583;DHT22;48641;51.676;5.808;2023-12-20T04:53:12;14.50;61.90
62583;DHT22;48641;51.676;5.808;2023-12-20T04:55:38;14.50;61.90
62583;DHT22;48641;51.676;5.808;2023-12-20T04:58:04;14.40;61.80
62583;DHT22;48641;51.676;5.808;2023-12-20T05:00:30;14.40;61.80
62583;DHT22;48641;51.676;5.808;2023-12-20T05:02:55;14.40;61.80
62583;DHT22;48641;51.676;5.808;2023-12-20T05:05:21;14.50;61.80
62583;DHT22;48641;51.676;5.808;2023-12-20T05:07:46;14.50;61.80
62583;DHT22;48641;51.676;5.808;2023-12-20T05:10:12;14.40;61.80
62583;DHT22;48641;51.676;5.808;2023-12-20T05:12:37;14.40;61.80
62583;DHT22;48641;51.676;5.808;2023-12-20T05:15:05;14.40;61.80
62583;DHT22;48641;51.676;5.808;2023-12-20T05:17:31;14.40;61.80
62583;DHT22;48641;51.676;5.808;2023-12-20T05:19:56;14.40;61.80
62583;DHT22;48641;51.676;5.808;2023-12-20T05:22:22;14.40;61.80
62583;DHT22;48641;51.676;5.808;2023-12-20T05:24:47;14.50;61.80
62583;DHT22;48641;51.676;5.808;2023-12-20T05:27:13;14.40;61.80
62583;DHT22;48641;51.676;5.808;2023-12-20T05:29:38;14.40;61.80
62583;DHT22;48641;51.676;5.808;2023-12-20T05:32:04;14.40;61.90
62583;DHT22;48641;51.676;5.808;2023-12-20T05:34:31;14.40;61.90
62583;DHT22;48641;51.676;5.808;2023-12-20T05:36:57;14.40;61.90
62583;DHT22;48641;51.676;5.808;2023-12-20T05:39:23;14.40;61.90
62583;DHT22;48641;51.676;5.808;2023-12-20T05:41:49;14.40;61.90
62583;DHT22;48641;51.676;5.808;2023-12-20T05:44:14;14.40;61.90
62583;DHT22;48641;51.676;5.808;2023-12-20T05:46:40;14.40;61.90
62583;DHT22;48641;51.676;5.808;2023-12-20T05:49:06;14.40;61.80
62583;DHT22;48641;51.676;5.808;2023-12-20T05:51:32;14.40;61.90
62583;DHT22;48641;51.676;5.808;2023-12-20T05:53:58;14.40;61.80
62583;DHT22;48641;51.676;5.808;2023-12-20T05:56:23;14.30;61.80
62583;DHT22;48641;51.676;5.808;2023-12-20T05:58:49;14.40;61.80
62583;DHT22;48641;51.676;5.808;2023-12-20T06:01:15;14.40;61.90
62583;DHT22;48641;51.676;5.808;2023-12-20T06:03:42;14.40;62.00
62583;DHT22;48641;51.676;5.808;2023-12-20T06:06:09;14.40;61.90
62583;DHT22;48641;51.676;5.808;2023-12-20T06:08:35;14.40;62.00
62583;DHT22;48641;51.676;5.808;2023-12-20T06:11:01;14.40;61.90
62583;DHT22;48641;51.676;5.808;2023-12-20T06:13:26;14.40;61.90
62583;DHT22;48641;51.676;5.808;2023-12-20T06:15:54;14.40;61.90
62583;DHT22;48641;51.676;5.808;2023-12-20T06:18:19;14.40;62.00
62583;DHT22;48641;51.676;5.808;2023-12-20T06:20:45;14.40;61.90
62583;DHT22;48641;51.676;5.808;2023-12-20T06:23:10;14.40;62.00
62583;DHT22;48641;51.676;5.808;2023-12-20T06:25:36;14.40;62.00
62583;DHT22;48641;51.676;5.808;2023-12-20T06:28:02;14.40;62.00
62583;DHT22;48641;51.676;5.808;2023-12-20T06:30:27;14.40;61.90
62583;DHT22;48641;51.676;5.808;2023-12-20T06:32:54;14.40;61.90
62583;DHT22;48641;51.676;5.808;2023-12-20T06:35:20;14.40;61.90
62583;DHT22;48641;51.676;5.808;2023-12-20T06:37:46;14.40;61.80
62583;DHT22;48641;51.676;5.808;2023-12-20T06:40:11;14.40;61.90
62583;DHT22;48641;51.676;5.808;2023-12-20T06:42:37;14.40;61.90
62583;DHT22;48641;51.676;5.808;2023-12-20T06:45:03;14.40;61.80
62583;DHT22;48641;51.676;5.808;2023-12-20T06:47:29;14.40;61.90
62583;DHT22;48641;51.676;5.808;2023-12-20T06:49:55;14.30;61.90
62583;DHT22;48641;51.676;5.808;2023-12-20T06:52:20;14.30;62.10
62583;DHT22;48641;51.676;5.808;2023-12-20T06:54:46;14.30;62.30
62583;DHT22;48641;51.676;5.808;2023-12-20T06:57:12;14.20;62.50
62583;DHT22;48641;51.676;5.808;2023-12-20T06:59:40;14.30;62.70
62583;DHT22;48641;51.676;5.808;2023-12-20T07:02:07;14.30;62.70
62583;DHT22;48641;51.676;5.808;2023-12-20T07:04:33;14.30;62.70
62583;DHT22;48641;51.676;5.808;2023-12-20T07:06:59;14.30;62.70
62583;DHT22;48641;51.676;5.808;2023-12-20T07:09:26;14.40;62.80
62583;DHT22;48641;51.676;5.808;2023-12-20T07:11:52;14.40;62.70
62583;DHT22;48641;51.676;5.808;2023-12-20T07:14:18;14.40;62.60
62583;DHT22;48641;51.676;5.808;2023-12-20T07:16:44;14.50;62.70
62583;DHT22;48641;51.676;5.808;2023-12-20T07:19:09;14.50;62.70
62583;DHT22;48641;51.676;5.808;2023-12-20T07:21:35;14.50;62.70
62583;DHT22;48641;51.676;5.808;2023-12-20T07:24:00;14.60;62.70
62583;DHT22;48641;51.676;5.808;2023-12-20T07:26:26;14.60;62.60
62583;DHT22;48641;51.676;5.808;2023-12-20T07:28:52;14.70;62.60
62583;DHT22;48641;51.676;5.808;2023-12-20T07:31:17;14.60;62.60
62583;DHT22;48641;51.676;5.808;2023-12-20T07:33:43;14.70;62.50
62583;DHT22;48641;51.676;5.808;2023-12-20T07:36:08;14.70;62.50
62583;DHT22;48641;51.676;5.808;2023-12-20T07:38:34;14.70;62.40
62583;DHT22;48641;51.676;5.808;2023-12-20T07:41:00;14.80;62.40
62583;DHT22;48641;51.676;5.808;2023-12-20T07:43:25;14.80;62.40
62583;DHT22;48641;51.676;5.808;2023-12-20T07:45:51;14.80;62.30
62583;DHT22;48641;51.676;5.808;2023-12-20T07:48:17;14.80;62.30
62583;DHT22;48641;51.676;5.808;2023-12-20T07:50:42;14.80;62.30
62583;DHT22;48641;51.676;5.808;2023-12-20T07:53:08;14.90;62.20
62583;DHT22;48641;51.676;5.808;2023-12-20T07:55:33;14.90;62.20
62583;DHT22;48641;51.676;5.808;2023-12-20T07:58:00;14.90;62.20
62583;DHT22;48641;51.676;5.808;2023-12-20T08:00:26;14.90;62.20
62583;DHT22;48641;51.676;5.808;2023-12-20T08:02:51;15.00;62.20
62583;DHT22;48641;51.676;5.808;2023-12-20T08:05:17;15.00;62.30
62583;DHT22;48641;51.676;5.808;2023-12-20T08:07:43;15.00;63.10
62583;DHT22;48641;51.676;5.808;2023-12-20T08:10:08;15.00;62.10
62583;DHT22;48641;51.676;5.808;2023-12-20T08:12:34;15.00;62.10
62583;DHT22;48641;51.676;5.808;2023-12-20T08:15:00;15.00;62.10
62583;DHT22;48641;51.676;5.808;2023-12-20T08:17:26;15.00;62.00
62583;DHT22;48641;51.676;5.808;2023-12-20T08:19:52;15.00;62.10
62583;DHT22;48641;51.676;5.808;2023-12-20T08:22:18;14.90;62.00
62583;DHT22;48641;51.676;5.808;2023-12-20T08:24:43;15.00;62.30
62583;DHT22;48641;51.676;5.808;2023-12-20T08:27:09;15.00;62.20
62583;DHT22;48641;51.676;5.808;2023-12-20T08:29:35;14.90;62.10
62583;DHT22;48641;51.676;5.808;2023-12-20T08:32:01;14.90;62.10
62583;DHT22;48641;51.676;5.808;2023-12-20T08:34:26;14.90;62.10
62583;DHT22;48641;51.676;5.808;2023-12-20T08:36:52;14.90;62.20
62583;DHT22;48641;51.676;5.808;2023-12-20T08:39:18;14.90;62.10
62583;DHT22;48641;51.676;5.808;2023-12-20T08:41:43;14.90;62.10
62583;DHT22;48641;51.676;5.808;2023-12-20T08:44:09;14.90;62.10
62583;DHT22;48641;51.676;5.808;2023-12-20T08:46:35;14.90;62.00
62583;DHT22;48641;51.676;5.808;2023-12-20T08:49:01;14.80;62.00
62583;DHT22;48641;51.676;5.808;2023-12-20T08:51:27;14.90;62.10
62583;DHT22;48641;51.676;5.808;2023-12-20T08:53:53;14.90;62.00
62583;DHT22;48641;51.676;5.808;2023-12-20T08:56:19;14.90;62.00
62583;DHT22;48641;51.676;5.808;2023-12-20T08:58:46;14.90;62.00
62583;DHT22;48641;51.676;5.808;2023-12-20T09:01:13;14.90;62.00
62583;DHT22;48641;51.676;5.808;2023-12-20T09:03:39;14.80;62.00
62583;DHT22;48641;51.676;5.808;2023-12-20T09:06:07;14.90;62.00
62583;DHT22;48641;51.676;5.808;2023-12-20T09:08:33;14.90;61.90
62583;DHT22;48641;51.676;5.808;2023-12-20T09:10:59;14.80;61.90
62583;DHT22;48641;51.676;5.808;2023-12-20T09:13:26;14.80;61.90
62583;DHT22;48641;51.676;5.808;2023-12-20T09:15:54;14.80;61.90
62583;DHT22;48641;51.676;5.808;2023-12-20T09:18:20;14.90;61.90
62583;DHT22;48641;51.676;5.808;2023-12-20T09:20:46;14.90;61.90
62583;DHT22;48641;51.676;5.808;2023-12-20T09:23:11;14.90;61.90
62583;DHT22;48641;51.676;5.808;2023-12-20T09:25:37;14.90;62.00
62583;DHT22;48641;51.676;5.808;2023-12-20T09:28:03;14.90;61.90
62583;DHT22;48641;51.676;5.808;2023-12-20T09:30:29;14.90;61.90
62583;DHT22;48641;51.676;5.808;2023-12-20T09:32:55;14.90;61.90
62583;DHT22;48641;51.676;5.808;2023-12-20T09:35:21;14.90;61.90
62583;DHT22;48641;51.676;5.808;2023-12-20T09:37:46;14.90;62.00
62583;DHT22;48641;51.676;5.808;2023-12-20T09:40:13;14.80;61.90
62583;DHT22;48641;51.676;5.808;2023-12-20T09:43:09;14.90;62.00
62583;DHT22;48641;51.676;5.808;2023-12-20T09:45:35;14.90;62.00
62583;DHT22;48641;51.676;5.808;2023-12-20T09:48:01;14.80;62.00
62583;DHT22;48641;51.676;5.808;2023-12-20T09:50:30;14.80;62.10
62583;DHT22;48641;51.676;5.808;2023-12-20T09:52:58;14.80;62.00
62583;DHT22;48641;51.676;5.808;2023-12-20T09:55:25;14.80;62.00
62583;DHT22;48641;51.676;5.808;2023-12-20T09:57:51;14.80;62.00
62583;DHT22;48641;51.676;5.808;2023-12-20T10:00:17;14.80;62.00
62583;DHT22;48641;51.676;5.808;2023-12-20T10:02:57;14.80;62.00
62583;DHT22;48641;51.676;5.808;2023-12-20T10:05:32;14.80;62.10
62583;DHT22;48641;51.676;5.808;2023-12-20T10:07:59;14.80;62.10
62583;DHT22;48641;51.676;5.808;2023-12-20T10:10:25;14.80;62.10
62583;DHT22;48641;51.676;5.808;2023-12-20T10:13:11;14.80;62.10
62583;DHT22;48641;51.676;5.808;2023-12-20T10:15:37;14.80;62.00
62583;DHT22;48641;51.676;5.808;2023-12-20T10:18:04;14.80;62.10
62583;DHT22;48641;51.676;5.808;2023-12-20T10:20:30;14.80;62.10
62583;DHT22;48641;51.676;5.808;2023-12-20T10:22:57;14.80;62.10
62583;DHT22;48641;51.676;5.808;2023-12-20T10:25:23;14.80;62.10
62583;DHT22;48641;51.676;5.808;2023-12-20T10:27:50;14.80;62.20
62583;DHT22;48641;51.676;5.808;2023-12-20T10:30:16;14.80;62.20
62583;DHT22;48641;51.676;5.808;2023-12-20T10:32:42;14.80;62.20
62583;DHT22;48641;51.676;5.808;2023-12-20T10:35:08;14.80;62.20
62583;DHT22;48641;51.676;5.808;2023-12-20T10:37:37;14.80;62.20
62583;DHT22;48641;51.676;5.808;2023-12-20T10:40:04;14.90;62.20
62583;DHT22;48641;51.676;5.808;2023-12-20T10:42:31;14.90;62.20
62583;DHT22;48641;51.676;5.808;2023-12-20T10:44:59;14.90;62.20
62583;DHT22;48641;51.676;5.808;2023-12-20T10:47:25;14.90;62.40
62583;DHT22;48641;51.676;5.808;2023-12-20T10:49:52;14.90;63.50
62583;DHT22;48641;51.676;5.808;2023-12-20T10:52:19;14.90;63.70
62583;DHT22;48641;51.676;5.808;2023-12-20T10:54:48;15.00;63.20
62583;DHT22;48641;51.676;5.808;2023-12-20T10:57:14;15.00;63.10
62583;DHT22;48641;51.676;5.808;2023-12-20T10:59:45;15.00;63.30
62583;DHT22;48641;51.676;5.808;2023-12-20T11:02:13;15.00;63.30
62583;DHT22;48641;51.676;5.808;2023-12-20T11:04:52;15.00;63.70
62583;DHT22;48641;51.676;5.808;2023-12-20T11:07:36;15.00;63.90
62583;DHT22;48641;51.676;5.808;2023-12-20T11:10:20;15.00;63.80
62583;DHT22;48641;51.676;5.808;2023-12-20T11:12:52;15.10;64.10
62583;DHT22;48641;51.676;5.808;2023-12-20T11:15:19;15.10;63.80
62583;DHT22;48641;51.676;5.808;2023-12-20T11:17:45;15.10;64.10
62583;DHT22;48641;51.676;5.808;2023-12-20T11:20:11;15.10;64.20
62583;DHT22;48641;51.676;5.808;2023-12-20T11:22:37;15.10;64.20
62583;DHT22;48641;51.676;5.808;2023-12-20T11:27:34;15.20;64.60
62583;DHT22;48641;51.676;5.808;2023-12-20T11:30:03;15.20;64.90
62583;DHT22;48641;51.676;5.808;2023-12-20T11:32:34;15.20;64.80
62583;DHT22;48641;51.676;5.808;2023-12-20T11:35:17;15.20;64.30
62583;DHT22;48641;51.676;5.808;2023-12-20T11:37:43;15.30;65.00
62583;DHT22;48641;51.676;5.808;2023-12-20T11:40:17;15.30;64.40
62583;DHT22;48641;51.676;5.808;2023-12-20T11:42:49;15.30;64.30
62583;DHT22;48641;51.676;5.808;2023-12-20T11:45:18;15.30;64.30
62583;DHT22;48641;51.676;5.808;2023-12-20T11:47:48;15.20;63.90
62583;DHT22;48641;51.676;5.808;2023-12-20T11:50:18;15.20;63.70
62583;DHT22;48641;51.676;5.808;2023-12-20T11:52:43;15.10;63.90
62583;DHT22;48641;51.676;5.808;2023-12-20T11:55:09;15.20;63.90
62583;DHT22;48641;51.676;5.808;2023-12-20T11:57:36;15.20;63.70
62583;DHT22;48641;51.676;5.808;2023-12-20T12:00:03;15.10;63.60
62583;DHT22;48641;51.676;5.808;2023-12-20T12:02:30;15.20;63.60
62583;DHT22;48641;51.676;5.808;2023-12-20T12:04:55;15.20;63.50
62583;DHT22;48641;51.676;5.808;2023-12-20T12:07:22;15.20;63.30
62583;DHT22;48641;51.676;5.808;2023-12-20T12:09:48;15.20;63.20
62583;DHT22;48641;51.676;5.808;2023-12-20T12:12:14;15.20;63.10
62583;DHT22;48641;51.676;5.808;2023-12-20T12:14:39;15.30;63.00
62583;DHT22;48641;51.676;5.808;2023-12-20T12:17:10;15.20;62.90
62583;DHT22;48641;51.676;5.808;2023-12-20T12:19:37;15.20;62.80
62583;DHT22;48641;51.676;5.808;2023-12-20T12:22:13;15.20;63.80
62583;DHT22;48641;51.676;5.808;2023-12-20T12:24:43;15.20;62.80
62583;DHT22;48641;51.676;5.808;2023-12-20T12:27:10;15.20;62.80
62583;DHT22;48641;51.676;5.808;2023-12-20T12:29:36;15.10;62.80
62583;DHT22;48641;51.676;5.808;2023-12-20T12:32:09;15.10;62.70
62583;DHT22;48641;51.676;5.808;2023-12-20T12:34:36;15.20;62.60
62583;DHT22;48641;51.676;5.808;2023-12-20T12:37:03;15.10;62.50
62583;DHT22;48641;51.676;5.808;2023-12-20T12:39:29;15.10;62.60
62583;DHT22;48641;51.676;5.808;2023-12-20T12:41:55;15.10;62.60
62583;DHT22;48641;51.676;5.808;2023-12-20T12:44:21;15.10;62.60
62583;DHT22;48641;51.676;5.808;2023-12-20T12:46:49;15.10;62.60
62583;DHT22;48641;51.676;5.808;2023-12-20T12:49:21;15.10;62.60
62583;DHT22;48641;51.676;5.808;2023-12-20T12:51:47;15.10;62.70
62583;DHT22;48641;51.676;5.808;2023-12-20T12:54:13;15.00;62.60
62583;DHT22;48641;51.676;5.808;2023-12-20T12:56:41;15.00;62.70
62583;DHT22;48641;51.676;5.808;2023-12-20T12:59:06;15.00;62.60
62583;DHT22;48641;51.676;5.808;2023-12-20T13:01:32;14.90;62.60
62583;DHT22;48641;51.676;5.808;2023-12-20T13:03:57;14.90;62.70
62583;DHT22;48641;51.676;5.808;2023-12-20T13:06:23;14.90;62.60
62583;DHT22;48641;51.676;5.808;2023-12-20T13:08:49;14.90;62.70
62583;DHT22;48641;51.676;5.808;2023-12-20T13:11:15;14.90;62.80
62583;DHT22;48641;51.676;5.808;2023-12-20T13:13:41;14.90;62.70
62583;DHT22;48641;51.676;5.808;2023-12-20T13:16:07;14.90;62.70
62583;DHT22;48641;51.676;5.808;2023-12-20T13:18:32;14.90;62.60
62583;DHT22;48641;51.676;5.808;2023-12-20T13:20:58;14.90;62.60
62583;DHT22;48641;51.676;5.808;2023-12-20T13:23:24;14.90;62.40
62583;DHT22;48641;51.676;5.808;2023-12-20T13:25:49;14.90;62.40
62583;DHT22;48641;51.676;5.808;2023-12-20T13:28:15;15.00;62.40
62583;DHT22;48641;51.676;5.808;2023-12-20T13:30:41;14.90;62.30
62583;DHT22;48641;51.676;5.808;2023-12-20T13:33:07;14.90;62.30
62583;DHT22;48641;51.676;5.808;2023-12-20T13:35:33;15.00;62.30
62583;DHT22;48641;51.676;5.808;2023-12-20T13:38:00;15.00;62.30
62583;DHT22;48641;51.676;5.808;2023-12-20T13:40:26;15.00;62.20
62583;DHT22;48641;51.676;5.808;2023-12-20T13:42:52;15.00;62.30
62583;DHT22;48641;51.676;5.808;2023-12-20T13:45:18;15.00;62.20
62583;DHT22;48641;51.676;5.808;2023-12-20T13:47:43;15.00;62.20
62583;DHT22;48641;51.676;5.808;2023-12-20T13:50:09;14.90;62.20
62583;DHT22;48641;51.676;5.808;2023-12-20T13:52:35;14.90;62.10
62583;DHT22;48641;51.676;5.808;2023-12-20T13:55:01;15.00;62.20
62583;DHT22;48641;51.676;5.808;2023-12-20T13:57:27;14.90;62.20
62583;DHT22;48641;51.676;5.808;2023-12-20T13:59:54;14.90;62.10
62583;DHT22;48641;51.676;5.808;2023-12-20T14:02:19;14.90;63.10
62583;DHT22;48641;51.676;5.808;2023-12-20T14:04:45;14.90;62.20
62583;DHT22;48641;51.676;5.808;2023-12-20T14:07:11;14.90;63.10
62583;DHT22;48641;51.676;5.808;2023-12-20T14:09:36;14.90;62.20
62583;DHT22;48641;51.676;5.808;2023-12-20T14:12:02;14.90;62.20
62583;DHT22;48641;51.676;5.808;2023-12-20T14:14:28;14.90;62.20
62583;DHT22;48641;51.676;5.808;2023-12-20T14:16:54;14.90;62.30
62583;DHT22;48641;51.676;5.808;2023-12-20T14:19:19;14.80;62.20
62583;DHT22;48641;51.676;5.808;2023-12-20T14:21:45;14.90;62.20
62583;DHT22;48641;51.676;5.808;2023-12-20T14:24:13;14.90;62.30
62583;DHT22;48641;51.676;5.808;2023-12-20T14:26:42;14.80;62.20
62583;DHT22;48641;51.676;5.808;2023-12-20T14:29:07;14.80;62.20
62583;DHT22;48641;51.676;5.808;2023-12-20T14:31:33;14.80;62.20
62583;DHT22;48641;51.676;5.808;2023-12-20T14:33:59;14.80;62.30
62583;DHT22;48641;51.676;5.808;2023-12-20T14:36:27;14.80;62.20
62583;DHT22;48641;51.676;5.808;2023-12-20T14:38:53;14.80;62.30
62583;DHT22;48641;51.676;5.808;2023-12-20T14:41:18;14.70;62.30
62583;DHT22;48641;51.676;5.808;2023-12-20T14:43:44;14.70;62.30
62583;DHT22;48641;51.676;5.808;2023-12-20T14:46:10;14.70;62.30
62583;DHT22;48641;51.676;5.808;2023-12-20T14:48:36;14.70;62.30
62583;DHT22;48641;51.676;5.808;2023-12-20T14:51:01;14.70;62.40
62583;DHT22;48641;51.676;5.808;2023-12-20T14:53:27;14.70;62.40
62583;DHT22;48641;51.676;5.808;2023-12-20T14:55:53;14.80;62.40
62583;DHT22;48641;51.676;5.808;2023-12-20T14:58:18;14.80;62.40
62583;DHT22;48641;51.676;5.808;2023-12-20T15:00:47;14.80;62.40
62583;DHT22;48641;51.676;5.808;2023-12-20T15:03:12;14.80;62.40
62583;DHT22;48641;51.676;5.808;2023-12-20T15:05:38;14.80;62.40
62583;DHT22;48641;51.676;5.808;2023-12-20T15:08:04;14.80;62.30
62583;DHT22;48641;51.676;5.808;2023-12-20T15:10:30;14.80;62.30
62583;DHT22;48641;51.676;5.808;2023-12-20T15:12:56;14.80;62.30
62583;DHT22;48641;51.676;5.808;2023-12-20T15:15:21;14.80;62.30
62583;DHT22;48641;51.676;5.808;2023-12-20T15:17:47;14.80;62.70
62583;DHT22;48641;51.676;5.808;2023-12-20T15:20:13;14.80;62.80
62583;DHT22;48641;51.676;5.808;2023-12-20T15:22:39;14.80;62.80
62583;DHT22;48641;51.676;5.808;2023-12-20T15:25:06;14.80;63.10
62583;DHT22;48641;51.676;5.808;2023-12-20T15:27:34;14.80;62.90